Map

Track Data

SID SEASON NUMBER BASIN SUBBASIN NAME ISO_TIME NATURE LAT LON WMO_WIND WMO_PRES WMO_AGENCY TRACK_TYPE DIST2LAND LANDFALL IFLAG USA_AGENCY USA_ATCF_ID USA_LAT USA_LON USA_RECORD USA_STATUS USA_WIND USA_PRES USA_SSHS USA_R34_NE USA_R34_SE USA_R34_SW USA_R34_NW USA_R50_NE USA_R50_SE USA_R50_SW USA_R50_NW USA_R64_NE USA_R64_SE USA_R64_SW USA_R64_NW USA_POCI USA_ROCI USA_RMW USA_EYE TOKYO_LAT TOKYO_LON TOKYO_GRADE TOKYO_WIND TOKYO_PRES TOKYO_R50_DIR TOKYO_R50_LONG TOKYO_R50_SHORT TOKYO_R30_DIR TOKYO_R30_LONG TOKYO_R30_SHORT TOKYO_LAND CMA_LAT CMA_LON CMA_CAT CMA_WIND CMA_PRES HKO_LAT HKO_LON HKO_CAT HKO_WIND HKO_PRES NEWDELHI_LAT NEWDELHI_LON NEWDELHI_GRADE NEWDELHI_WIND NEWDELHI_PRES NEWDELHI_CI NEWDELHI_DP NEWDELHI_POCI REUNION_LAT REUNION_LON REUNION_TYPE REUNION_WIND REUNION_PRES REUNION_TNUM REUNION_CI REUNION_RMW REUNION_R34_NE REUNION_R34_SE REUNION_R34_SW REUNION_R34_NW REUNION_R50_NE REUNION_R50_SE REUNION_R50_SW REUNION_R50_NW REUNION_R64_NE REUNION_R64_SE REUNION_R64_SW REUNION_R64_NW BOM_LAT BOM_LON BOM_TYPE BOM_WIND BOM_PRES BOM_TNUM BOM_CI BOM_RMW BOM_R34_NE BOM_R34_SE BOM_R34_SW BOM_R34_NW BOM_R50_NE BOM_R50_SE BOM_R50_SW BOM_R50_NW BOM_R64_NE BOM_R64_SE BOM_R64_SW BOM_R64_NW BOM_ROCI BOM_POCI BOM_EYE BOM_POS_METHOD BOM_PRES_METHOD NADI_LAT NADI_LON NADI_CAT NADI_WIND NADI_PRES WELLINGTON_LAT WELLINGTON_LON WELLINGTON_WIND WELLINGTON_PRES DS824_LAT DS824_LON DS824_STAGE DS824_WIND DS824_PRES TD9636_LAT TD9636_LON TD9636_STAGE TD9636_WIND TD9636_PRES TD9635_LAT TD9635_LON TD9635_WIND TD9635_PRES TD9635_ROCI NEUMANN_LAT NEUMANN_LON NEUMANN_CLASS NEUMANN_WIND NEUMANN_PRES MLC_LAT MLC_LON MLC_CLASS MLC_WIND MLC_PRES USA_GUST BOM_GUST BOM_GUST_PER REUNION_GUST REUNION_GUST_PER USA_SEAHGT USA_SEARAD_NE USA_SEARAD_SE USA_SEARAD_SW USA_SEARAD_NW STORM_SPEED STORM_DIR
1878256N19090 1878 20 NI BB NOT_NAMED 1878-09-13 00:00:00 TS 19.1000 89.8000 main 288 284 _________O____ -1 19.1000 89.8000 TC 30 4 268
1878256N19090 1878 20 NI BB NOT_NAMED 1878-09-13 03:00:00 TS 19.0934 89.5983 main 284 280 _________PO___ -1 19.0901 89.4975 TC 30 19.1000 89.8000 1 5 271
1878256N19090 1878 20 NI BB NOT_NAMED 1878-09-13 06:00:00 TS 19.1089 89.3231 main 280 279 _________OP___ -1 19.1000 89.2000 TC 30 19.1222 89.5079 1 5 275
1878256N19090 1878 20 NI BB NOT_NAMED 1878-09-13 09:00:00 TS 19.1436 89.0382 main 275 251 _________PP___ -1 19.1424 88.9075 TC 30 19.1453 89.2126 1 5 278
1878256N19090 1878 20 NI BB NOT_NAMED 1878-09-13 12:00:00 TS 19.1854 88.7555 main 251 216 _________OP___ -1 19.2000 88.6000 TC 30 19.1708 88.9110 1 6 278
1878256N19090 1878 20 NI BB NOT_NAMED 1878-09-13 15:00:00 TS 19.2250 88.4250 main 216 184 _________PO___ -1 19.2500 88.2500 TC 30 19.2000 88.6000 1 6 277
1878256N19090 1878 20 NI BB NOT_NAMED 1878-09-13 18:00:00 TS 19.2673 88.0890 main 184 160 _________OP___ -1 19.3000 87.9000 TC 30 19.2346 88.2780 1 6 278
1878256N19090 1878 20 NI BB NOT_NAMED 1878-09-13 21:00:00 TS 19.3099 87.7711 main 160 130 _________PP___ -1 19.3424 87.5924 TC 30 19.2774 87.9499 1 6 279
1878256N19090 1878 20 NI BB NOT_NAMED 1878-09-14 00:00:00 TS 19.3658 87.4609 main 130 107 _________OP___ -1 19.4000 87.3000 TC 30 19.3315 87.6217 1 6 283
1878256N19090 1878 20 NI BB NOT_NAMED 1878-09-14 03:00:00 TS 19.4462 87.1500 main 107 76 _________PO___ -1 19.4925 87.0000 TC 30 19.4000 87.3000 1 6 287
1878256N19090 1878 20 NI BB NOT_NAMED 1878-09-14 06:00:00 TS 19.5386 86.8504 main 76 49 _________OP___ -1 19.6000 86.7000 TC 30 19.4772 87.0008 1 6 288
1878256N19090 1878 20 NI BB NOT_NAMED 1878-09-14 09:00:00 TS 19.6310 86.5573 main 49 30 _________PP___ -1 19.6924 86.4074 TC 30 19.5696 86.7072 1 6 290
1878256N19090 1878 20 NI BB NOT_NAMED 1878-09-14 12:00:00 TS 19.7386 86.2550 main 30 0 _________OP___ -1 19.8000 86.1000 TC 30 19.6772 86.4101 1 6 292
1878256N19090 1878 20 NI BB NOT_NAMED 1878-09-14 15:00:00 TS 19.8712 85.9287 main 0 0 _________PO___ -1 19.9425 85.7575 TC 30 19.8000 86.1000 1 7 294
1878256N19090 1878 20 NI BB NOT_NAMED 1878-09-14 18:00:00 TS 20.0115 85.5962 main 0 0 _________OP___ -1 20.1000 85.4000 TC 30 19.9229 85.7923 1 7 295
1878256N19090 1878 20 NI BB NOT_NAMED 1878-09-14 21:00:00 TS 20.1519 85.2732 main 0 0 _________PP___ -1 20.2422 85.0798 TC 30 20.0617 85.4667 1 7 295
1878256N19090 1878 20 NI BB NOT_NAMED 1878-09-15 00:00:00 TS 20.3098 84.9039 main 0 0 _________OP___ -1 20.4000 84.7000 TC 30 20.2196 85.1077 1 9 293
1878256N19090 1878 20 NI BB NOT_NAMED 1878-09-15 03:00:00 TS 20.4926 84.4362 main 0 0 _________PO___ -1 20.5851 84.1725 TC 30 20.4000 84.7000 1 10 294
1878256N19090 1878 20 NI BB NOT_NAMED 1878-09-15 06:00:00 TS 20.7119 83.9170 main 0 0 _________OP___ -1 20.8000 83.6000 TC 30 20.6237 84.2340 1 11 296
1878256N19090 1878 20 NI BB NOT_NAMED 1878-09-15 09:00:00 TS 20.9611 83.4092 main 0 0 _________PP___ -1 21.0572 83.1000 TC 30 20.8649 83.7183 1 11 297
1878256N19090 1878 20 NI BB NOT_NAMED 1878-09-15 12:00:00 TS 21.1993 82.8842 main 0 0 _________OP___ -1 21.3000 82.6000 TC 30 21.0986 83.1684 1 11 293
1878256N19090 1878 20 NI BB NOT_NAMED 1878-09-15 15:00:00 TS 21.3899 82.3325 main 0 0 _________PO___ -1 21.4798 82.0649 TC 30 21.3000 82.6000 1 11 287
1878256N19090 1878 20 NI BB NOT_NAMED 1878-09-15 18:00:00 TS 21.5264 81.7452 main 0 0 _________OP___ -1 21.6000 81.5000 TC 30 21.4528 81.9904 1 12 282
1878256N19090 1878 20 NI BB NOT_NAMED 1878-09-15 21:00:00 TS 21.6207 81.1149 main 0 0 _________PP___ -1 21.6728 80.8549 TC 30 21.5685 81.3748 1 11 278
1878256N19090 1878 20 NI BB NOT_NAMED 1878-09-16 00:00:00 TS 21.6749 80.5484 main 0 0 _________OP___ -1 21.7000 80.3000 TC 30 21.6498 80.7968 1 9 275
1878256N19090 1878 20 NI BB NOT_NAMED 1878-09-16 03:00:00 TS 21.7035 80.1525 main 0 0 _________PO___ -1 21.7071 80.0049 TC 30 21.7000 80.3000 1 6 274
1878256N19090 1878 20 NI BB NOT_NAMED 1878-09-16 06:00:00 TS 21.7138 79.8712 main 0 0 _________OP___ -1 21.7000 79.8000 TC 30 21.7275 79.9423 1 5 271
1878256N19090 1878 20 NI BB NOT_NAMED 1878-09-16 09:00:00 TS 21.7142 79.5872 main 0 0 _________PP___ -1 21.7000 79.5075 TC 30 21.7285 79.6670 1 5 269
1878256N19090 1878 20 NI BB NOT_NAMED 1878-09-16 12:00:00 TS 21.7077 79.3166 main 0 0 _________OP___ -1 21.7000 79.2000 TC 30 21.7153 79.4331 1 5 268
1878256N19090 1878 20 NI BB NOT_NAMED 1878-09-16 15:00:00 TS 21.7000 79.0500 main 0 0 _________PO___ -1 21.6999 78.9000 TC 30 21.7000 79.2000 1 5 268
1878256N19090 1878 20 NI BB NOT_NAMED 1878-09-16 18:00:00 TS 21.6936 78.7697 main 0 0 _________OP___ -1 21.7000 78.6000 TC 30 21.6872 78.9394 1 5 268
1878256N19090 1878 20 NI BB NOT_NAMED 1878-09-16 21:00:00 TS 21.6844 78.4985 main 0 0 _________PP___ -1 21.6922 78.3299 TC 30 21.6766 78.6670 1 5 269
1878256N19090 1878 20 NI BB NOT_NAMED 1878-09-17 00:00:00 TS 21.6888 78.1806 main 0 0 _________OP___ -1 21.7000 78.0000 TC 30 21.6777 78.3612 1 7 273
1878256N19090 1878 20 NI AS NOT_NAMED 1878-09-17 03:00:00 TS 21.7175 77.7650 main 0 0 _________PO___ -1 21.7351 77.5300 TC 30 21.7000 78.0000 1 8 276
1878256N19090 1878 20 NI AS NOT_NAMED 1878-09-17 06:00:00 TS 21.7748 77.2788 main 0 0 _________OP___ -1 21.8000 77.0000 TC 30 21.7496 77.5576 1 9 279
1878256N19090 1878 20 NI AS NOT_NAMED 1878-09-17 09:00:00 TS 21.8563 76.7875 main 0 0 _________PP___ -1 21.8922 76.5150 TC 30 21.8203 77.0601 1 10 281
1878256N19090 1878 20 NI AS NOT_NAMED 1878-09-17 12:00:00 TS 21.9529 76.2663 main 0 0 _________OP___ -1 22.0000 76.0000 TC 30 21.9058 76.5325 1 10 281
1878256N19090 1878 20 NI AS NOT_NAMED 1878-09-17 15:00:00 TS 22.0501 75.6925 main 0 0 _________PO___ -1 22.1002 75.3850 TC 30 22.0000 76.0000 1 11 281
1878256N19090 1878 20 NI AS NOT_NAMED 1878-09-17 18:00:00 TS 22.1549 75.1097 main 0 0 _________OP___ -1 22.2000 74.8000 TC 30 22.1098 75.4193 1 11 282
1878256N19090 1878 20 NI AS NOT_NAMED 1878-09-17 21:00:00 TS 22.2693 74.5804 main 0 0 _________PP___ -1 22.3149 74.3101 TC 30 22.2236 74.8508 1 9 284
1878256N19090 1878 20 NI AS NOT_NAMED 1878-09-18 00:00:00 TS 22.3627 74.1784 main 0 0 _________OP___ -1 22.4000 74.0000 TC 30 22.3255 74.3568 1 6 284
1878256N19090 1878 20 NI AS NOT_NAMED 1878-09-18 03:00:00 TS 22.4074 73.9700 main 0 0 _________PO___ -1 22.4148 73.9399 TC 30 22.4000 74.0000 1 2 282
1878256N19090 1878 20 NI AS NOT_NAMED 1878-09-18 06:00:00 TS 22.4139 73.9279 main 0 0 _________OP___ -1 22.4000 74.0000 TC 30 22.4278 73.8559 1 0 280
1878256N19090 1878 20 NI AS NOT_NAMED 1878-09-18 09:00:00 TS 22.4145 73.9248 main 0 0 _________PP___ -1 22.4000 74.0000 TC 30 22.4290 73.8496 1 0 99
1878256N19090 1878 20 NI AS NOT_NAMED 1878-09-18 12:00:00 TS 22.4079 73.9593 main 0 0 _________OP___ -1 22.4000 74.0000 TC 30 22.4157 73.9185 1 1 102
1878256N19090 1878 20 NI AS NOT_NAMED 1878-09-18 15:00:00 TS 22.4000 74.0000 main 0 0 _________PO___ -1 22.4000 74.0000 TC 30 22.4000 74.0000 1 1 102
1878256N19090 1878 20 NI AS NOT_NAMED 1878-09-18 18:00:00 TS 22.3938 74.0284 main 0 0 _________OP___ -1 22.4000 74.0000 TC 30 22.3876 74.0567 1 1 103
1878256N19090 1878 20 NI AS NOT_NAMED 1878-09-18 21:00:00 TS 22.3847 74.0711 main 0 0 _________PP___ -1 22.3924 74.0375 TC 30 22.3770 74.1047 1 0 0
1878256N19090 1878 20 NI AS NOT_NAMED 1878-09-19 00:00:00 TS 22.3890 74.0502 main 0 0 _________OP___ -1 22.4000 74.0000 TC 30 22.3780 74.1004 1 2 282
1878256N19090 1878 20 NI AS NOT_NAMED 1878-09-19 03:00:00 TS 22.4174 73.9087 main 0 0 _________PO___ -1 22.4349 73.8174 TC 30 22.4000 74.0000 1 4 282
1878256N19090 1878 20 NI AS NOT_NAMED 1878-09-19 06:00:00 TS 22.4729 73.6253 main 0 0 _________OP___ -1 22.5000 73.5000 TC 30 22.4457 73.7506 1 6 282
1878256N19090 1878 20 NI AS NOT_NAMED 1878-09-19 09:00:00 TS 22.5529 73.2350 main 0 0 _________PP___ -1 22.5927 73.0651 TC 30 22.5131 73.4050 1 8 283
1878256N19090 1878 20 NI AS NOT_NAMED 1878-09-19 12:00:00 TS 22.6494 72.8034 main 0 0 _________OP___ -1 22.7000 72.6000 TC 30 22.5988 73.0068 1 8 284
1878256N19090 1878 20 NI AS NOT_NAMED 1878-09-19 15:00:00 TS 22.7462 72.4174 main 0 0 _________PO___ -1 22.7923 72.2349 TC 30 22.7000 72.6000 1 7 287
1878256N19090 1878 20 NI AS NOT_NAMED 1878-09-19 18:00:00 TS 22.8508 72.0826 main 0 0 _________OP___ -1 22.9000 71.9000 TC 30 22.8139 72.2196 1 7 290
1878256N19090 1878 20 NI AS NOT_NAMED 1878-09-19 21:00:00 TS 22.9786 71.7414 main 0 0 _________PP___ -1 23.0402 71.5552 TC 30 22.9375 71.8654 1 7 293
1878256N19090 1878 20 NI AS NOT_NAMED 1878-09-20 00:00:00 TS 23.1116 71.4190 main 0 0 _________OP___ -1 23.2000 71.2000 TC 30 23.0673 71.5286 1 5 294
1878256N19090 1878 20 NI AS NOT_NAMED 1878-09-20 03:00:00 NR 23.2000 71.2000 main 0 __________O___ -1 TC 23.2000 71.2000 1 4 294

About IBTrACS Database

This database is a web-friendly format of International Best Track Archive for Climate Stewardship (IBTrACS), a global best track data archive curated by NOAA dating back to 1842.

Updated: 2021-10-19